Time;durP1;ratioP1;P1;durP2;ratioP2;P2;SDS_P1;SDS_P2;PMS_P1;PMS_P2;Temp;Humidity;BMP_temperature;BMP_pressure;BME280_temperature;BME280_humidity;BME280_pressure;Samples;Min_cycle;Max_cycle;Signal;HPM_P1;HPM_P2
2022/08/16 00:02:05;;;;;;;4.23;3.57;;;21.00;99.90;;;;;;5083567;28;20394;-83
2022/08/16 00:04:50;;;;;;;3.00;2.57;;;20.90;99.90;;;;;;5083287;28;20385;-82
2022/08/16 00:07:34;;;;;;;5.17;2.80;;;21.00;99.90;;;;;;5082512;28;20448;-82
2022/08/16 00:10:21;;;;;;;2.80;2.50;;;20.90;99.90;;;;;;5083854;28;20417;-82
2022/08/16 00:13:08;;;;;;;3.70;2.63;;;21.00;99.90;;;;;;5083605;28;20392;-82
2022/08/16 00:15:52;;;;;;;3.07;2.77;;;21.20;99.90;;;;;;5068900;28;20412;-82
2022/08/16 00:18:37;;;;;;;3.10;2.90;;;21.30;99.90;;;;;;5082781;28;20412;-82
2022/08/16 00:21:21;;;;;;;4.43;3.27;;;21.20;99.90;;;;;;5082859;28;20405;-83
2022/08/16 00:24:05;;;;;;;3.30;3.10;;;21.10;99.90;;;;;;5083090;28;20389;-82
2022/08/16 00:26:50;;;;;;;6.83;3.00;;;21.10;99.90;;;;;;5096988;28;20542;-82
2022/08/16 00:29:34;;;;;;;2.77;2.57;;;21.00;99.90;;;;;;5125106;28;20379;-82
2022/08/16 00:32:19;;;;;;;3.87;2.83;;;20.70;99.90;;;;;;5125332;28;20429;-81
2022/08/16 00:35:05;;;;;;;2.60;2.40;;;20.90;99.90;;;;;;5125643;28;20384;-82
2022/08/16 00:37:50;;;;;;;2.60;2.40;;;20.90;99.90;;;;;;5125870;28;20383;-82
2022/08/16 00:40:42;;;;;;;2.97;2.67;;;20.80;99.90;;;;;;5125974;28;20471;-82
2022/08/16 00:43:34;;;;;;;2.93;2.70;;;20.60;99.90;;;;;;5125178;28;20486;-82
2022/08/16 00:46:29;;;;;;;2.73;2.40;;;20.40;99.90;;;;;;5125469;28;20476;-78
2022/08/16 00:49:14;;;;;;;5.97;3.20;;;20.50;99.90;;;;;;5124932;28;20423;-82
2022/08/16 00:51:59;;;;;;;3.27;2.97;;;20.40;99.90;;;;;;5125404;28;20371;-82
2022/08/16 00:54:43;;;;;;;3.23;2.93;;;20.50;99.90;;;;;;5109842;28;20398;-82
2022/08/16 00:57:28;;;;;;;3.03;2.83;;;20.40;99.90;;;;;;5125891;28;20438;-82
2022/08/16 01:00:14;;;;;;;9.87;3.27;;;20.50;99.90;;;;;;5125642;28;20426;-83
2022/08/16 01:03:01;;;;;;;2.73;2.53;;;20.30;99.90;;;;;;5125863;28;20383;-83
2022/08/16 01:05:46;;;;;;;2.73;2.53;;;20.30;99.90;;;;;;5126148;28;20417;-82
2022/08/16 01:08:34;;;;;;;2.67;2.47;;;20.50;99.90;;;;;;5126982;28;20406;-82
2022/08/16 01:11:18;;;;;;;4.20;2.40;;;20.60;99.90;;;;;;5126289;28;20398;-82
2022/08/16 01:14:19;;;;;;;3.13;2.90;;;20.60;99.90;;;;;;5127274;28;20407;-83
2022/08/16 01:17:04;;;;;;;3.50;2.87;;;20.60;99.90;;;;;;5126731;28;20886;-82
2022/08/16 01:19:55;;;;;;;2.70;2.50;;;20.60;99.90;;;;;;5111118;28;20380;-83
2022/08/16 01:23:01;;;;;;;3.17;2.70;;;20.30;99.90;;;;;;5129851;28;20862;-80
2022/08/16 01:25:51;;;;;;;2.23;2.03;;;20.40;99.90;;;;;;5138676;28;20401;-79
2022/08/16 01:28:36;;;;;;;3.27;2.97;;;20.50;99.90;;;;;;5137914;28;20505;-79
2022/08/16 01:31:22;;;;;;;3.07;2.33;;;20.40;99.90;;;;;;5138545;28;20383;-79
2022/08/16 01:34:07;;;;;;;3.17;2.90;;;20.30;99.90;;;;;;5085489;28;20839;-82
2022/08/16 01:36:59;;;;;;;3.17;2.97;;;20.00;99.90;;;;;;5128730;28;20383;-82
2022/08/16 01:39:44;;;;;;;3.30;2.90;;;20.00;99.90;;;;;;5128178;28;20382;-82
2022/08/16 01:42:30;;;;;;;4.50;2.87;;;19.90;99.90;;;;;;5128437;28;20379;-82
2022/08/16 01:45:17;;;;;;;3.10;2.80;;;19.80;99.90;;;;;;5127821;28;20407;-82
2022/08/16 01:48:01;;;;;;;2.30;2.10;;;19.80;99.90;;;;;;5128662;28;20454;-83
2022/08/16 01:50:49;;;;;;;2.87;2.57;;;19.90;99.90;;;;;;5114031;28;20394;-82
2022/08/16 01:53:35;;;;;;;3.30;2.83;;;19.70;99.90;;;;;;5114637;28;20387;-82
2022/08/16 01:56:21;;;;;;;5.03;4.73;;;19.70;99.90;;;;;;5129820;28;20460;-82
2022/08/16 01:59:08;;;;;;;4.00;3.70;;;19.70;99.90;;;;;;5129373;28;20383;-82
2022/08/16 02:01:53;;;;;;;2.73;2.53;;;19.70;99.90;;;;;;5129601;28;20382;-82
2022/08/16 02:04:37;;;;;;;2.83;2.63;;;19.70;99.90;;;;;;5129640;28;20390;-82
2022/08/16 02:07:22;;;;;;;2.33;2.10;;;19.60;99.90;;;;;;5129782;28;20468;-82
2022/08/16 02:10:08;;;;;;;2.87;2.67;;;19.40;99.90;;;;;;5129669;28;20374;-82
2022/08/16 02:12:53;;;;;;;3.10;2.77;;;19.40;99.90;;;;;;5129533;28;20456;-82
2022/08/16 02:15:39;;;;;;;3.40;3.00;;;19.30;99.90;;;;;;5129484;28;20384;-82
2022/08/16 02:18:24;;;;;;;2.80;2.53;;;19.30;99.90;;;;;;5129627;28;20394;-82
2022/08/16 02:21:11;;;;;;;3.73;3.13;;;19.40;99.90;;;;;;5113754;28;20425;-83
2022/08/16 02:23:55;;;;;;;3.57;3.27;;;19.40;99.90;;;;;;5129659;28;20429;-82
2022/08/16 02:26:40;;;;;;;2.80;2.60;;;19.40;99.90;;;;;;5135036;28;20438;-79
2022/08/16 02:29:25;;;;;;;2.97;2.77;;;19.30;99.90;;;;;;5134721;28;20380;-80
2022/08/16 02:32:12;;;;;;;6.13;3.20;;;19.10;99.90;;;;;;5135418;28;20379;-79
2022/08/16 02:34:57;;;;;;;4.93;3.07;;;19.10;99.90;;;;;;5134682;28;20406;-79
2022/08/16 02:37:41;;;;;;;3.40;3.10;;;19.00;99.90;;;;;;5135183;28;20449;-79
2022/08/16 02:40:27;;;;;;;3.83;3.40;;;19.20;99.90;;;;;;5134322;28;20422;-79
2022/08/16 02:43:12;;;;;;;4.00;2.50;;;19.10;99.90;;;;;;5134572;28;20449;-80
2022/08/16 02:45:58;;;;;;;3.03;2.70;;;19.20;99.90;;;;;;5134913;28;20386;-79
2022/08/16 02:48:42;;;;;;;3.40;3.07;;;18.90;99.90;;;;;;5134799;28;20406;-79
2022/08/16 02:51:26;;;;;;;3.80;2.70;;;18.80;99.90;;;;;;5132877;28;20387;-82
2022/08/16 02:54:13;;;;;;;4.43;3.10;;;18.90;99.90;;;;;;5130136;28;20379;-82
2022/08/16 02:56:59;;;;;;;5.73;3.30;;;18.90;99.90;;;;;;5128810;28;20426;-82
2022/08/16 02:59:44;;;;;;;3.77;3.00;;;18.90;99.90;;;;;;5129110;28;20489;-82
2022/08/16 03:02:28;;;;;;;3.03;2.83;;;18.90;99.90;;;;;;5129212;28;20409;-82
2022/08/16 03:05:14;;;;;;;3.30;3.00;;;19.00;99.90;;;;;;5128796;28;20379;-81
2022/08/16 03:07:59;;;;;;;3.33;3.03;;;19.00;99.90;;;;;;5113237;28;20500;-82
2022/08/16 03:10:43;;;;;;;2.90;2.70;;;18.60;99.90;;;;;;5128975;28;20383;-81
2022/08/16 03:13:28;;;;;;;3.63;2.53;;;18.60;99.90;;;;;;5129161;28;20900;-79
2022/08/16 03:16:12;;;;;;;4.00;3.20;;;18.90;99.90;;;;;;5132924;28;20466;-79
2022/08/16 03:18:57;;;;;;;3.60;3.20;;;18.60;99.90;;;;;;5130870;28;20414;-82
2022/08/16 03:21:41;;;;;;;4.23;3.23;;;18.50;99.90;;;;;;5083830;28;20822;-81
2022/08/16 03:24:27;;;;;;;3.50;3.20;;;18.40;99.90;;;;;;5127717;28;20539;-82
2022/08/16 03:27:11;;;;;;;3.50;3.20;;;18.50;99.90;;;;;;5114343;28;20489;-81
2022/08/16 03:29:56;;;;;;;5.03;3.13;;;18.50;99.90;;;;;;5132672;28;20456;-79
2022/08/16 03:32:40;;;;;;;3.00;2.80;;;18.70;99.90;;;;;;5132742;28;20464;-81
2022/08/16 03:35:28;;;;;;;4.53;4.13;;;18.30;99.90;;;;;;5128695;28;20882;-82
2022/08/16 03:38:14;;;;;;;4.17;3.77;;;18.30;99.90;;;;;;5127454;28;20907;-82
2022/08/16 03:41:00;;;;;;;4.00;3.60;;;18.20;99.90;;;;;;5127796;28;20425;-82
2022/08/16 03:43:44;;;;;;;4.40;3.87;;;18.20;99.90;;;;;;5127046;28;20446;-82
2022/08/16 03:46:28;;;;;;;4.37;3.40;;;18.30;99.90;;;;;;5121990;28;20462;-82
2022/08/16 03:49:16;;;;;;;4.10;3.77;;;18.30;99.90;;;;;;5120650;28;20428;-82
2022/08/16 03:52:00;;;;;;;6.00;3.80;;;18.40;99.90;;;;;;5110431;28;20820;-82
2022/08/16 03:54:46;;;;;;;3.70;3.40;;;18.40;99.90;;;;;;5107720;28;20407;-79
2022/08/16 03:57:31;;;;;;;4.20;3.70;;;18.60;99.90;;;;;;5112009;28;20434;-79
2022/08/16 04:00:19;;;;;;;4.70;3.60;;;18.40;99.90;;;;;;5112296;28;20414;-79
2022/08/16 04:03:06;;;;;;;4.07;3.70;;;18.20;99.90;;;;;;5112437;28;20473;-79
2022/08/16 04:05:51;;;;;;;10.50;3.90;;;18.30;99.90;;;;;;5112198;28;20460;-79
2022/08/16 04:08:35;;;;;;;4.37;3.83;;;18.30;99.90;;;;;;5111351;28;20446;-79
2022/08/16 04:11:20;;;;;;;3.67;3.30;;;18.50;99.90;;;;;;5094640;28;20391;-82
2022/08/16 04:14:04;;;;;;;6.13;4.03;;;18.50;99.90;;;;;;5105836;28;20376;-82
2022/08/16 04:16:49;;;;;;;8.80;3.77;;;18.40;99.90;;;;;;5106636;28;20441;-82
2022/08/16 04:19:34;;;;;;;5.00;4.50;;;18.40;99.90;;;;;;5093996;28;20430;-81
2022/08/16 04:22:18;;;;;;;5.53;3.97;;;18.50;99.90;;;;;;5100571;28;20465;-82
2022/08/16 04:25:04;;;;;;;4.97;4.10;;;18.50;99.90;;;;;;5100366;28;20447;-82
2022/08/16 04:27:48;;;;;;;5.10;4.43;;;18.50;99.90;;;;;;5102391;28;20536;-82
2022/08/16 04:30:33;;;;;;;5.20;3.93;;;18.60;99.90;;;;;;5101408;28;20464;-81
2022/08/16 04:33:18;;;;;;;6.20;4.43;;;18.30;99.90;;;;;;5076037;28;20432;-82
2022/08/16 04:36:02;;;;;;;5.33;4.03;;;18.30;99.90;;;;;;5079828;28;20482;-82
2022/08/16 04:38:47;;;;;;;4.50;4.10;;;18.60;99.90;;;;;;5104738;28;20384;-82
2022/08/16 04:41:51;;;;;;;3.60;3.30;;;18.60;99.90;;;;;;5099752;28;20940;-82
2022/08/16 04:44:36;;;;;;;6.17;3.90;;;18.40;99.90;;;;;;5076205;28;21035;-82
2022/08/16 04:47:24;;;;;;;4.20;3.80;;;18.40;99.90;;;;;;5082081;28;20455;-81
2022/08/16 04:50:13;;;;;;;5.50;4.90;;;18.50;99.90;;;;;;5080728;28;20393;-82
2022/08/16 04:52:59;;;;;;;7.20;4.70;;;18.60;99.90;;;;;;5082462;28;20408;-82
2022/08/16 04:55:43;;;;;;;5.60;4.53;;;18.50;99.90;;;;;;5067630;28;20403;-82
2022/08/16 04:58:30;;;;;;;4.23;3.70;;;18.70;99.90;;;;;;5062864;28;20811;-82
2022/08/16 05:01:16;;;;;;;4.73;4.33;;;19.00;99.90;;;;;;5062145;28;20410;-82
2022/08/16 05:04:02;;;;;;;4.80;4.40;;;18.90;99.90;;;;;;5072584;28;20409;-82
2022/08/16 05:06:46;;;;;;;4.63;4.23;;;18.90;99.90;;;;;;5082532;28;20543;-80
2022/08/16 05:09:30;;;;;;;4.60;4.20;;;18.80;99.90;;;;;;5089686;28;20955;-82
2022/08/16 05:12:15;;;;;;;4.73;3.20;;;18.70;99.90;;;;;;5084599;28;20423;-82
2022/08/16 05:15:00;;;;;;;4.67;4.07;;;18.80;99.90;;;;;;5077939;28;20427;-82
2022/08/16 05:17:45;;;;;;;7.43;4.90;;;18.50;99.90;;;;;;5106048;28;20384;-82
2022/08/16 05:20:30;;;;;;;7.93;4.57;;;18.70;99.90;;;;;;5110708;28;20449;-82
2022/08/16 05:23:16;;;;;;;4.40;4.00;;;18.50;99.90;;;;;;5126527;28;20552;-82
2022/08/16 05:26:01;;;;;;;5.07;4.57;;;18.30;99.90;;;;;;5107176;28;20952;-83
2022/08/16 05:28:47;;;;;;;4.97;4.47;;;18.50;99.90;;;;;;5125886;28;20511;-82
2022/08/16 05:31:34;;;;;;;4.40;3.97;;;18.50;99.90;;;;;;5146456;28;20470;-82
2022/08/16 05:34:20;;;;;;;5.50;4.00;;;18.70;99.90;;;;;;5130732;28;20432;-82
2022/08/16 05:37:04;;;;;;;6.53;4.03;;;18.80;99.90;;;;;;5114811;28;20427;-82
2022/08/16 05:40:09;;;;;;;5.07;4.43;;;18.80;99.90;;;;;;5107942;28;20725;-82
2022/08/16 05:42:53;;;;;;;5.90;4.73;;;18.90;99.90;;;;;;5054434;28;20466;-82
2022/08/16 05:45:38;;;;;;;6.23;3.50;;;18.90;99.90;;;;;;5013370;28;20486;-82
2022/08/16 05:48:22;;;;;;;5.13;4.43;;;19.20;99.90;;;;;;5026340;28;20442;-82
2022/08/16 05:51:07;;;;;;;5.80;4.53;;;19.10;99.90;;;;;;5030083;28;20446;-82
2022/08/16 05:53:51;;;;;;;5.37;4.87;;;19.30;99.90;;;;;;5041499;28;20422;-82
2022/08/16 05:56:36;;;;;;;6.20;4.87;;;19.00;99.90;;;;;;5035809;28;20964;-82
2022/08/16 05:59:21;;;;;;;10.00;5.20;;;19.20;99.90;;;;;;4997314;28;20488;-82
2022/08/16 06:02:06;;;;;;;9.17;5.53;;;19.20;99.90;;;;;;5058956;28;20421;-82
2022/08/16 06:04:51;;;;;;;8.63;4.93;;;19.10;99.90;;;;;;5059766;28;20437;-79
2022/08/16 06:07:35;;;;;;;6.07;5.30;;;19.00;99.90;;;;;;5038685;28;20477;-82
2022/08/16 06:10:20;;;;;;;5.27;4.77;;;19.20;99.90;;;;;;5035377;28;20413;-82
2022/08/16 06:13:04;;;;;;;6.10;4.30;;;19.30;99.90;;;;;;5050009;28;20435;-82
2022/08/16 06:15:50;;;;;;;4.33;3.93;;;19.50;99.90;;;;;;5090812;28;20431;-82
2022/08/16 06:18:35;;;;;;;4.60;4.20;;;19.60;99.90;;;;;;5079479;28;20436;-82
2022/08/16 06:21:21;;;;;;;6.03;5.20;;;19.40;99.90;;;;;;5096466;28;20460;-82
2022/08/16 06:24:06;;;;;;;4.83;4.10;;;19.50;99.90;;;;;;5100586;28;20439;-80
2022/08/16 06:26:50;;;;;;;11.30;3.90;;;19.70;99.90;;;;;;5091303;28;20448;-80
2022/08/16 06:29:35;;;;;;;6.40;4.07;;;20.00;99.90;;;;;;5087179;28;20436;-82
2022/08/16 06:32:19;;;;;;;7.83;4.67;;;20.10;99.90;;;;;;5101269;28;20431;-82
2022/08/16 06:35:06;;;;;;;4.50;4.10;;;19.90;99.90;;;;;;5080428;28;20404;-82
2022/08/16 06:37:50;;;;;;;5.37;4.87;;;20.10;99.90;;;;;;5093445;28;20452;-82
2022/08/16 06:40:36;;;;;;;6.37;5.40;;;20.10;99.90;;;;;;5099315;28;20414;-82
2022/08/16 06:43:21;;;;;;;3.73;3.43;;;20.30;99.90;;;;;;5096545;27;20487;-82
2022/08/16 06:46:09;;;;;;;6.50;4.80;;;20.10;99.90;;;;;;5121145;27;20431;-82
2022/08/16 06:48:53;;;;;;;4.30;3.93;;;20.30;99.90;;;;;;5112341;28;20462;-82
2022/08/16 06:51:39;;;;;;;3.87;3.57;;;20.60;99.90;;;;;;5120604;28;20442;-82
2022/08/16 06:54:23;;;;;;;6.57;4.83;;;20.60;99.90;;;;;;5112789;28;20427;-83
2022/08/16 06:57:09;;;;;;;4.80;4.40;;;20.50;99.90;;;;;;5118115;27;21084;-82
2022/08/16 06:59:53;;;;;;;4.60;3.57;;;20.60;99.90;;;;;;5118936;27;20427;-82
2022/08/16 07:02:40;;;;;;;4.63;3.50;;;20.90;99.90;;;;;;5113180;28;21625;-82
2022/08/16 07:05:24;;;;;;;4.40;4.00;;;21.10;99.90;;;;;;5113728;27;20428;-82
2022/08/16 07:08:10;;;;;;;5.03;3.70;;;21.30;99.90;;;;;;5105431;28;20455;-78
2022/08/16 07:10:55;;;;;;;10.27;4.33;;;21.00;99.90;;;;;;5114819;28;20499;-83
2022/08/16 07:13:39;;;;;;;5.60;4.60;;;21.20;99.90;;;;;;5105930;28;20509;-79
2022/08/16 07:16:24;;;;;;;4.50;4.20;;;21.30;99.90;;;;;;5100420;28;20426;-82
2022/08/16 07:19:09;;;;;;;4.43;3.83;;;21.50;99.90;;;;;;5120180;27;20456;-82
2022/08/16 07:21:53;;;;;;;4.07;3.77;;;21.60;99.90;;;;;;5109387;28;20450;-81
2022/08/16 07:24:37;;;;;;;4.40;4.00;;;21.80;99.90;;;;;;5119311;28;20473;-82
2022/08/16 07:27:22;;;;;;;8.60;4.30;;;21.60;99.90;;;;;;5110551;28;20481;-81
2022/08/16 07:30:10;;;;;;;7.30;4.00;;;21.60;99.90;;;;;;5115498;28;20491;-82
2022/08/16 07:32:55;;;;;;;3.83;3.60;;;21.80;99.90;;;;;;5109624;27;20538;-82
2022/08/16 07:35:40;;;;;;;7.90;4.07;;;21.70;99.90;;;;;;5096924;28;20422;-82
2022/08/16 07:38:26;;;;;;;5.60;3.73;;;21.90;99.90;;;;;;5112931;27;20426;-82
2022/08/16 07:41:11;;;;;;;4.70;4.30;;;22.00;99.90;;;;;;5113360;27;20939;-81
2022/08/16 07:43:56;;;;;;;4.03;3.73;;;22.20;99.90;;;;;;5104185;28;20475;-81
2022/08/16 07:46:41;;;;;;;5.10;4.10;;;22.40;99.90;;;;;;5112274;27;20467;-82
2022/08/16 07:49:25;;;;;;;5.17;4.73;;;22.50;99.90;;;;;;5115827;27;20431;-83
2022/08/16 07:52:10;;;;;;;6.97;4.40;;;22.40;99.90;;;;;;5111881;27;20419;-83
2022/08/16 07:54:55;;;;;;;4.33;3.93;;;22.50;99.90;;;;;;5111125;27;20826;-82
2022/08/16 07:57:41;;;;;;;6.73;6.10;;;22.50;99.90;;;;;;5090337;28;20573;-81
2022/08/16 08:00:27;;;;;;;5.53;4.97;;;22.70;99.90;;;;;;5118102;27;20568;-81
2022/08/16 08:03:13;;;;;;;5.30;4.70;;;22.30;99.90;;;;;;5110835;28;20418;-80
2022/08/16 08:05:58;;;;;;;6.57;4.93;;;22.30;99.90;;;;;;5115541;27;20445;-81
2022/08/16 08:08:43;;;;;;;3.80;3.50;;;22.60;99.90;;;;;;5083996;28;20464;-81
2022/08/16 08:11:31;;;;;;;4.50;4.10;;;22.80;99.90;;;;;;5091133;28;20465;-80
2022/08/16 08:14:16;;;;;;;5.07;4.20;;;22.90;99.90;;;;;;5003648;28;20443;-81
2022/08/16 08:17:22;;;;;;;8.77;4.33;;;22.60;99.90;;;;;;4998257;28;20436;-81
2022/08/16 08:20:13;;;;;;;5.30;4.43;;;22.50;99.90;;;;;;4986385;28;20498;-80
2022/08/16 08:23:21;;;;;;;5.50;4.90;;;22.60;99.90;;;;;;4936091;29;20467;-81
2022/08/16 08:26:22;;;;;;;5.43;4.90;;;22.50;99.90;;;;;;4937127;29;20481;-80
2022/08/16 08:29:27;;;;;;;5.03;3.83;;;22.40;99.90;;;;;;4941971;29;20523;-79
2022/08/16 08:32:15;;;;;;;4.67;4.30;;;22.50;99.90;;;;;;4905841;29;20437;-79
2022/08/16 08:35:06;;;;;;;4.50;4.10;;;22.80;99.90;;;;;;4877711;29;20461;-80
2022/08/16 08:37:52;;;;;;;5.20;4.70;;;23.20;99.90;;;;;;4883712;29;20441;-79
2022/08/16 08:40:41;;;;;;;4.77;4.30;;;23.30;99.90;;;;;;4884448;29;20446;-78
2022/08/16 08:43:28;;;;;;;6.00;5.50;;;23.40;99.90;;;;;;4867393;29;20503;-79
2022/08/16 08:46:20;;;;;;;5.20;4.50;;;23.40;99.90;;;;;;4884198;29;20457;-80
2022/08/16 08:49:28;;;;;;;4.80;4.40;;;23.50;99.90;;;;;;4855731;29;20518;-81
2022/08/16 08:52:33;;;;;;;8.63;4.53;;;23.60;99.90;;;;;;4867241;29;20474;-78
2022/08/16 08:55:21;;;;;;;4.57;4.27;;;23.90;99.90;;;;;;4856029;29;20441;-81
2022/08/16 08:58:08;;;;;;;5.30;4.90;;;23.80;99.90;;;;;;4840186;29;20500;-80
2022/08/16 09:00:55;;;;;;;5.37;4.97;;;23.80;99.90;;;;;;4838783;29;20523;-81
2022/08/16 09:03:47;;;;;;;5.23;4.73;;;23.80;99.90;;;;;;4842134;29;20459;-81
2022/08/16 09:06:33;;;;;;;5.03;4.63;;;24.00;99.90;;;;;;4852338;29;21903;-81
2022/08/16 09:09:18;;;;;;;5.10;4.40;;;23.90;99.90;;;;;;4858185;29;20551;-81
2022/08/16 09:12:04;;;;;;;9.47;4.97;;;24.50;99.90;;;;;;4853057;29;20947;-81
2022/08/16 09:14:50;;;;;;;12.20;4.77;;;24.10;99.90;;;;;;4869264;29;20426;-81
2022/08/16 09:17:36;;;;;;;5.20;4.70;;;24.40;99.90;;;;;;4887772;29;20478;-81
2022/08/16 09:20:26;;;;;;;5.00;4.10;;;24.50;99.90;;;;;;4850689;29;20525;-81
2022/08/16 09:23:12;;;;;;;4.67;4.27;;;24.80;99.90;;;;;;4891342;29;20947;-81
2022/08/16 09:25:57;;;;;;;4.40;4.00;;;24.50;99.90;;;;;;4954456;28;20472;-82
2022/08/16 09:28:44;;;;;;;6.80;5.23;;;24.20;99.90;;;;;;4981768;28;20437;-81
2022/08/16 09:31:30;;;;;;;3.73;3.43;;;24.20;99.90;;;;;;4976756;28;20597;-80
2022/08/16 09:34:35;;;;;;;6.70;4.97;;;24.40;99.90;;;;;;5030245;28;20541;-81
2022/08/16 09:37:21;;;;;;;5.13;4.63;;;24.10;99.90;;;;;;4963188;28;20500;-82
2022/08/16 09:40:08;;;;;;;5.53;4.43;;;24.00;99.90;;;;;;4962493;28;20441;-81
2022/08/16 09:42:57;;;;;;;9.60;5.23;;;24.00;99.90;;;;;;4958040;28;20602;-81
2022/08/16 09:45:45;;;;;;;10.13;4.73;;;24.50;99.90;;;;;;4958074;28;20437;-81
2022/08/16 09:48:31;;;;;;;4.00;3.70;;;24.50;99.90;;;;;;4933322;28;20469;-80
2022/08/16 09:51:17;;;;;;;5.43;4.93;;;24.90;99.90;;;;;;4946212;29;20450;-80
2022/08/16 09:54:03;;;;;;;5.07;4.57;;;25.70;99.90;;;;;;4921384;29;20507;-80
2022/08/16 09:56:50;;;;;;;4.33;4.03;;;25.40;99.90;;;;;;4935995;29;20502;-82
2022/08/16 09:59:37;;;;;;;7.17;4.60;;;26.10;99.90;;;;;;4933471;29;21087;-80
2022/08/16 10:02:24;;;;;;;7.70;4.30;;;26.50;99.90;;;;;;4868424;29;20465;-81
2022/08/16 10:05:10;;;;;;;5.03;4.53;;;26.20;99.90;;;;;;4866870;29;20493;-80
2022/08/16 10:08:03;;;;;;;5.23;4.53;;;26.30;99.90;;;;;;4873996;29;20611;-79
2022/08/16 10:13:51;;;;;;;5.10;4.43;;;26.50;99.90;;;;;;4902679;29;20521;-81
2022/08/16 10:16:37;;;;;;;4.43;3.43;;;26.40;99.90;;;;;;4892002;29;20556;-81
2022/08/16 10:19:45;;;;;;;6.70;5.77;;;26.60;99.90;;;;;;4881481;29;20485;-81
2022/08/16 10:22:32;;;;;;;3.87;3.57;;;26.20;99.90;;;;;;4852242;29;20438;-81
2022/08/16 10:25:18;;;;;;;4.73;4.33;;;27.00;99.90;;;;;;4895805;29;20503;-81
2022/08/16 10:28:03;;;;;;;5.50;5.10;;;27.10;99.90;;;;;;4893474;29;20584;-81
2022/08/16 10:30:48;;;;;;;10.70;9.73;;;27.20;99.90;;;;;;4904446;29;20445;-79
2022/08/16 10:33:35;;;;;;;9.00;4.50;;;27.10;99.90;;;;;;4960843;28;20443;-81
2022/08/16 10:36:22;;;;;;;4.17;3.87;;;26.90;99.90;;;;;;5011741;28;20572;-81
2022/08/16 10:39:07;;;;;;;3.90;3.60;;;26.70;99.90;;;;;;5005896;28;20439;-83
2022/08/16 10:41:52;;;;;;;4.50;3.97;;;27.40;99.90;;;;;;5019954;28;20507;-81
2022/08/16 10:44:46;;;;;;;4.57;4.27;;;27.70;99.90;;;;;;4975462;28;20487;-81
2022/08/16 10:47:52;;;;;;;4.40;4.10;;;27.90;99.90;;;;;;4988410;28;20504;-80
2022/08/16 10:50:42;;;;;;;6.23;3.60;;;28.10;99.90;;;;;;4983420;28;20474;-81
2022/08/16 10:53:30;;;;;;;10.63;4.20;;;27.80;99.90;;;;;;4951041;28;20531;-81
2022/08/16 10:56:24;;;;;;;5.20;3.57;;;27.80;99.90;;;;;;4983482;28;20454;-81
2022/08/16 10:59:10;;;;;;;4.20;3.80;;;28.00;99.90;;;;;;4981273;28;20474;-81
2022/08/16 11:02:18;;;;;;;4.73;4.33;;;27.70;99.90;;;;;;4910206;29;20545;-79
2022/08/16 11:05:05;;;;;;;4.70;3.93;;;27.20;99.90;;;;;;4865253;29;20630;-80
2022/08/16 11:08:10;;;;;;;4.53;4.20;;;26.90;99.90;;;;;;4847510;29;20543;-81
2022/08/16 11:10:56;;;;;;;5.17;4.77;;;26.70;99.90;;;;;;4845856;29;20471;-81
2022/08/16 11:13:44;;;;;;;5.83;4.70;;;26.10;99.90;;;;;;4839815;29;20486;-80
2022/08/16 11:16:30;;;;;;;4.97;4.57;;;26.10;99.90;;;;;;4844157;29;20484;-80
2022/08/16 11:19:17;;;;;;;6.20;4.23;;;26.10;99.90;;;;;;4859173;29;20602;-82
2022/08/16 11:22:02;;;;;;;4.60;4.00;;;25.70;99.90;;;;;;4886145;29;20538;-81
2022/08/16 11:25:07;;;;;;;4.17;3.83;;;26.20;99.90;;;;;;4852808;29;20445;-81
2022/08/16 11:27:55;;;;;;;4.50;4.00;;;26.10;99.90;;;;;;4855966;29;20527;-79
2022/08/16 11:30:42;;;;;;;4.67;4.27;;;26.30;99.90;;;;;;4861984;29;20551;-81
2022/08/16 11:33:28;;;;;;;6.27;4.20;;;26.70;99.90;;;;;;4882532;29;20469;-80
2022/08/16 11:36:14;;;;;;;4.30;4.00;;;26.90;99.90;;;;;;4885266;29;20479;-80
2022/08/16 11:39:01;;;;;;;7.90;3.90;;;26.90;99.90;;;;;;4938843;28;20819;-81
2022/08/16 11:41:47;;;;;;;4.90;4.40;;;27.30;99.90;;;;;;4941223;29;20529;-81
2022/08/16 11:44:34;;;;;;;5.27;4.43;;;28.10;99.90;;;;;;4946196;29;20484;-81
2022/08/16 11:47:22;;;;;;;4.60;3.80;;;29.40;98.10;;;;;;4934867;29;20506;-79
2022/08/16 11:50:08;;;;;;;4.80;4.40;;;29.90;95.40;;;;;;4945310;29;20450;-80
2022/08/16 11:52:52;;;;;;;4.32;4.03;;;29.90;94.20;;;;;;4976418;28;21001;-80
2022/08/16 11:55:38;;;;;;;4.03;3.78;;;29.80;93.10;;;;;;4965811;28;20216;-79
2022/08/16 11:58:25;;;;;;;4.25;3.85;;;29.60;93.00;;;;;;4962250;28;20228;-79
2022/08/16 12:01:14;;;;;;;4.73;4.43;;;29.50;92.90;;;;;;4973150;28;20188;-80
2022/08/16 12:04:03;;;;;;;3.90;3.63;;;28.90;93.10;;;;;;4951123;29;20334;-79
2022/08/16 12:06:49;;;;;;;6.17;4.50;;;28.00;94.60;;;;;;4938063;29;20751;-77
2022/08/16 12:09:37;;;;;;;4.83;4.33;;;27.80;95.70;;;;;;4908059;29;20543;-79
2022/08/16 12:12:44;;;;;;;3.90;3.60;;;27.80;94.80;;;;;;4867804;29;20457;-79
2022/08/16 12:15:30;;;;;;;4.00;3.70;;;27.70;95.40;;;;;;4884674;29;20453;-80
2022/08/16 12:18:17;;;;;;;4.63;4.27;;;27.10;96.50;;;;;;4868413;29;20507;-79
2022/08/16 12:21:02;;;;;;;4.00;3.70;;;27.40;96.40;;;;;;4874289;29;20633;-82
2022/08/16 12:23:46;;;;;;;4.37;4.07;;;27.50;96.30;;;;;;4855868;29;20455;-81
2022/08/16 12:26:34;;;;;;;4.67;4.27;;;27.10;99.10;;;;;;4922171;29;20501;-81
2022/08/16 12:29:19;;;;;;;4.53;4.13;;;27.10;97.20;;;;;;4904759;29;20506;-81
2022/08/16 12:32:04;;;;;;;7.30;4.23;;;26.70;98.30;;;;;;4929803;29;20442;-80
2022/08/16 12:35:10;;;;;;;3.80;3.40;;;26.90;96.90;;;;;;4906949;29;20507;-79
2022/08/16 12:37:57;;;;;;;4.80;4.40;;;26.90;97.00;;;;;;4912790;29;20455;-83
2022/08/16 12:40:48;;;;;;;4.53;4.07;;;27.00;97.20;;;;;;4932730;29;20471;-80
2022/08/16 12:43:32;;;;;;;6.30;3.83;;;27.10;97.70;;;;;;4955286;28;20885;-81
2022/08/16 12:46:16;;;;;;;7.07;6.47;;;27.40;98.00;;;;;;4971758;28;20514;-81
2022/08/16 12:49:02;;;;;;;4.17;3.87;;;27.20;98.60;;;;;;4963238;28;20440;-82
2022/08/16 12:51:47;;;;;;;4.87;4.37;;;27.30;97.10;;;;;;4953689;28;20850;-82
2022/08/16 12:54:36;;;;;;;6.50;4.70;;;27.20;96.80;;;;;;4980343;28;20431;-80
2022/08/16 12:57:25;;;;;;;6.80;3.97;;;27.30;97.00;;;;;;4992360;28;20463;-81
2022/08/16 13:00:17;;;;;;;4.63;4.30;;;27.30;96.30;;;;;;4992574;28;20430;-81
2022/08/16 13:03:04;;;;;;;4.60;3.77;;;27.10;98.80;;;;;;5004996;28;20439;-79
2022/08/16 13:05:50;;;;;;;4.40;4.00;;;27.20;96.80;;;;;;4966110;28;20498;-79
2022/08/16 13:08:43;;;;;;;4.70;4.40;;;27.10;97.10;;;;;;4937384;28;20446;-79
2022/08/16 13:11:44;;;;;;;4.60;4.20;;;27.10;96.80;;;;;;4946699;28;20536;-80
2022/08/16 13:14:37;;;;;;;5.37;4.47;;;27.10;97.20;;;;;;4977911;28;20473;-80
2022/08/16 13:17:24;;;;;;;6.10;4.30;;;27.10;96.70;;;;;;4932122;29;20461;-81
2022/08/16 13:20:15;;;;;;;4.20;3.80;;;27.10;96.60;;;;;;4948329;29;20499;-81
2022/08/16 13:23:07;;;;;;;5.27;3.17;;;27.10;96.70;;;;;;4949561;29;20438;-80
2022/08/16 13:25:51;;;;;;;5.07;4.30;;;27.10;98.10;;;;;;4945246;29;20450;-79
2022/08/16 13:28:37;;;;;;;4.57;3.97;;;27.10;97.70;;;;;;4943844;29;20561;-79
2022/08/16 13:31:24;;;;;;;7.90;4.53;;;26.80;98.50;;;;;;4931790;29;20469;-80
2022/08/16 13:34:09;;;;;;;4.00;3.70;;;26.80;98.00;;;;;;4943734;29;20637;-80
2022/08/16 13:36:56;;;;;;;4.97;4.47;;;26.70;99.50;;;;;;4875443;29;20503;-80
2022/08/16 13:40:03;;;;;;;4.80;4.50;;;26.80;97.90;;;;;;4905810;29;20480;-81
2022/08/16 13:42:51;;;;;;;4.50;4.20;;;26.90;98.00;;;;;;4883105;29;20437;-80
2022/08/16 13:45:41;;;;;;;3.83;3.53;;;26.90;99.20;;;;;;4896102;29;20472;-81
2022/08/16 13:48:28;;;;;;;3.83;3.53;;;27.00;99.90;;;;;;4940863;29;20436;-80
2022/08/16 13:51:15;;;;;;;4.10;3.80;;;27.10;98.10;;;;;;4939803;28;20450;-80
2022/08/16 13:54:01;;;;;;;4.00;3.70;;;27.10;97.70;;;;;;4953360;29;20623;-81
2022/08/16 13:56:46;;;;;;;7.23;4.10;;;27.20;98.00;;;;;;4949888;28;20496;-81
2022/08/16 13:59:30;;;;;;;3.60;3.33;;;27.70;95.90;;;;;;4970646;28;20849;-79
2022/08/16 14:02:14;;;;;;;3.77;3.37;;;28.10;95.00;;;;;;4973586;28;20431;-79
2022/08/16 14:04:59;;;;;;;4.83;4.40;;;28.90;93.60;;;;;;4969152;28;20539;-79
2022/08/16 14:07:44;;;;;;;4.30;3.70;;;29.20;92.60;;;;;;5019730;28;20437;-82
2022/08/16 14:10:31;;;;;;;5.43;4.10;;;28.70;93.00;;;;;;5041762;28;20920;-82
2022/08/16 14:13:16;;;;;;;7.10;4.60;;;29.60;92.50;;;;;;5073158;28;20754;-82
2022/08/16 14:16:00;;;;;;;4.05;3.75;;;30.20;92.50;;;;;;5044753;28;20239;-80
2022/08/16 14:18:51;;;;;;;4.22;3.92;;;31.10;92.20;;;;;;5074329;28;20248;-81
2022/08/16 14:21:36;;;;;;;3.30;3.10;;;29.80;87.80;;;;;;5078371;28;20189;-81
2022/08/16 14:24:22;;;;;;;4.10;3.80;;;29.50;89.00;;;;;;5065072;28;20266;-81
2022/08/16 14:27:06;;;;;;;5.72;5.22;;;30.60;89.00;;;;;;5052748;28;20264;-80
2022/08/16 14:29:53;;;;;;;3.80;3.50;;;30.30;83.50;;;;;;5023418;28;20675;-82
2022/08/16 14:32:42;;;;;;;4.65;4.25;;;30.60;85.20;;;;;;5038988;28;20245;-82